sensor_id;sensor_type;location;lat;lon;timestamp;pressure;altitude;pressure_sealevel;temperature;humidity
67931;BME280;63902;52.000;5.954;2024-02-21T00:00:31;101776.06;;;8.51;100.00
67931;BME280;63902;52.000;5.954;2024-02-21T00:01:32;101774.34;;;8.50;100.00
67931;BME280;63902;52.000;5.954;2024-02-21T00:02:32;101778.72;;;8.51;100.00
67931;BME280;63902;52.000;5.954;2024-02-21T00:03:33;101776.94;;;8.53;100.00
67931;BME280;63902;52.000;5.954;2024-02-21T00:04:33;101772.50;;;8.54;100.00
67931;BME280;63902;52.000;5.954;2024-02-21T00:05:34;101753.31;;;8.44;100.00
67931;BME280;63902;52.000;5.954;2024-02-21T00:06:34;101761.94;;;8.54;100.00
67931;BME280;63902;52.000;5.954;2024-02-21T00:07:35;101749.81;;;8.42;100.00
67931;BME280;63902;52.000;5.954;2024-02-21T00:08:35;101762.81;;;8.54;100.00
67931;BME280;63902;52.000;5.954;2024-02-21T00:09:36;101763.72;;;8.53;100.00
67931;BME280;63902;52.000;5.954;2024-02-21T00:10:36;101764.56;;;8.54;100.00
67931;BME280;63902;52.000;5.954;2024-02-21T00:11:37;101766.34;;;8.53;100.00
67931;BME280;63902;52.000;5.954;2024-02-21T00:12:37;101740.16;;;8.38;100.00
67931;BME280;63902;52.000;5.954;2024-02-21T00:13:37;101764.63;;;8.52;100.00
67931;BME280;63902;52.000;5.954;2024-02-21T00:14:39;101751.53;;;8.44;100.00
67931;BME280;63902;52.000;5.954;2024-02-21T00:15:40;101759.34;;;8.52;100.00
67931;BME280;63902;52.000;5.954;2024-02-21T00:16:40;101752.28;;;8.51;100.00
67931;BME280;63902;52.000;5.954;2024-02-21T00:17:41;101754.06;;;8.50;100.00
67931;BME280;63902;52.000;5.954;2024-02-21T00:18:41;101760.19;;;8.52;100.00
67931;BME280;63902;52.000;5.954;2024-02-21T00:19:42;101756.75;;;8.49;100.00
67931;BME280;63902;52.000;5.954;2024-02-21T00:20:42;101764.63;;;8.52;100.00
67931;BME280;63902;52.000;5.954;2024-02-21T00:21:42;101756.66;;;8.54;100.00
67931;BME280;63902;52.000;5.954;2024-02-21T00:22:43;101766.34;;;8.53;100.00
67931;BME280;63902;52.000;5.954;2024-02-21T00:23:43;101754.91;;;8.52;100.00
67931;BME280;63902;52.000;5.954;2024-02-21T00:24:44;101745.38;;;8.44;100.00
67931;BME280;63902;52.000;5.954;2024-02-21T00:25:45;101751.41;;;8.50;100.00
67931;BME280;63902;52.000;5.954;2024-02-21T00:26:45;101717.31;;;8.34;100.00
67931;BME280;63902;52.000;5.954;2024-02-21T00:27:46;101749.63;;;8.51;100.00
67931;BME280;63902;52.000;5.954;2024-02-21T00:28:46;101744.34;;;8.51;100.00
67931;BME280;63902;52.000;5.954;2024-02-21T00:29:48;101745.25;;;8.51;100.00
67931;BME280;63902;52.000;5.954;2024-02-21T00:30:49;101744.34;;;8.52;100.00
67931;BME280;63902;52.000;5.954;2024-02-21T00:31:49;101707.72;;;8.29;100.00
67931;BME280;63902;52.000;5.954;2024-02-21T00:32:50;101744.34;;;8.52;100.00
67931;BME280;63902;52.000;5.954;2024-02-21T00:33:50;101713.75;;;8.36;100.00
67931;BME280;63902;52.000;5.954;2024-02-21T00:34:51;101743.47;;;8.52;100.00
67931;BME280;63902;52.000;5.954;2024-02-21T00:35:51;101736.41;;;8.51;100.00
67931;BME280;63902;52.000;5.954;2024-02-21T00:36:52;101732.91;;;8.52;100.00
67931;BME280;63902;52.000;5.954;2024-02-21T00:37:52;101734.69;;;8.50;100.00
67931;BME280;63902;52.000;5.954;2024-02-21T00:38:52;101737.31;;;8.51;100.00
67931;BME280;63902;52.000;5.954;2024-02-21T00:39:53;101725.84;;;8.51;100.00
67931;BME280;63902;52.000;5.954;2024-02-21T00:40:54;101724.97;;;8.52;100.00
67931;BME280;63902;52.000;5.954;2024-02-21T00:41:54;101730.25;;;8.52;100.00
67931;BME280;63902;52.000;5.954;2024-02-21T00:42:55;101729.38;;;8.51;100.00
67931;BME280;63902;52.000;5.954;2024-02-21T00:43:55;101732.91;;;8.52;100.00
67931;BME280;63902;52.000;5.954;2024-02-21T00:44:57;101731.13;;;8.51;100.00
67931;BME280;63902;52.000;5.954;2024-02-21T00:45:58;101717.09;;;8.47;100.00
67931;BME280;63902;52.000;5.954;2024-02-21T00:46:58;101729.38;;;8.51;100.00
67931;BME280;63902;52.000;5.954;2024-02-21T00:47:59;101730.22;;;8.54;100.00
67931;BME280;63902;52.000;5.954;2024-02-21T00:48:59;101718.81;;;8.51;100.00
67931;BME280;63902;52.000;5.954;2024-02-21T00:50:00;101717.91;;;8.51;100.00
67931;BME280;63902;52.000;5.954;2024-02-21T00:51:00;101721.44;;;8.51;100.00
67931;BME280;63902;52.000;5.954;2024-02-21T00:52:01;101704.75;;;8.48;100.00
67931;BME280;63902;52.000;5.954;2024-02-21T00:53:01;101710.88;;;8.51;100.00
67931;BME280;63902;52.000;5.954;2024-02-21T00:54:02;101706.44;;;8.52;100.00
67931;BME280;63902;52.000;5.954;2024-02-21T00:55:03;101702.97;;;8.50;100.00
67931;BME280;63902;52.000;5.954;2024-02-21T00:56:04;101702.97;;;8.50;100.00
67931;BME280;63902;52.000;5.954;2024-02-21T00:57:05;101682.88;;;8.37;100.00
67931;BME280;63902;52.000;5.954;2024-02-21T00:58:05;101679.38;;;8.36;100.00
67931;BME280;63902;52.000;5.954;2024-02-21T00:59:06;101702.91;;;8.53;100.00
67931;BME280;63902;52.000;5.954;2024-02-21T01:00:09;101695.03;;;8.48;100.00
67931;BME280;63902;52.000;5.954;2024-02-21T01:01:09;101695.00;;;8.51;100.00
67931;BME280;63902;52.000;5.954;2024-02-21T01:02:10;101692.31;;;8.53;100.00
67931;BME280;63902;52.000;5.954;2024-02-21T01:03:10;101694.94;;;8.55;100.00
67931;BME280;63902;52.000;5.954;2024-02-21T01:04:10;101690.59;;;8.52;100.00
67931;BME280;63902;52.000;5.954;2024-02-21T01:05:11;101689.69;;;8.53;100.00
67931;BME280;63902;52.000;5.954;2024-02-21T01:06:11;101681.81;;;8.48;100.00
67931;BME280;63902;52.000;5.954;2024-02-21T01:07:12;101685.31;;;8.52;100.00
67931;BME280;63902;52.000;5.954;2024-02-21T01:08:12;101688.81;;;8.52;100.00
67931;BME280;63902;52.000;5.954;2024-02-21T01:09:13;101667.91;;;8.37;100.00
67931;BME280;63902;52.000;5.954;2024-02-21T01:10:13;101699.34;;;8.54;100.00
67931;BME280;63902;52.000;5.954;2024-02-21T01:11:14;101694.06;;;8.54;100.00
67931;BME280;63902;52.000;5.954;2024-02-21T01:12:14;101687.03;;;8.53;100.00
67931;BME280;63902;52.000;5.954;2024-02-21T01:13:15;101694.97;;;8.53;100.00
67931;BME280;63902;52.000;5.954;2024-02-21T01:14:15;101694.06;;;8.54;100.00
67931;BME280;63902;52.000;5.954;2024-02-21T01:15:17;101681.75;;;8.53;100.00
67931;BME280;63902;52.000;5.954;2024-02-21T01:16:18;101694.06;;;8.54;100.00
67931;BME280;63902;52.000;5.954;2024-02-21T01:17:18;101687.03;;;8.53;100.00
67931;BME280;63902;52.000;5.954;2024-02-21T01:18:19;101677.31;;;8.54;100.00
67931;BME280;63902;52.000;5.954;2024-02-21T01:19:19;101680.00;;;8.52;100.00
67931;BME280;63902;52.000;5.954;2024-02-21T01:20:20;101676.47;;;8.53;100.00
67931;BME280;63902;52.000;5.954;2024-02-21T01:21:20;101676.47;;;8.53;100.00
67931;BME280;63902;52.000;5.954;2024-02-21T01:22:21;101666.00;;;8.47;100.00
67931;BME280;63902;52.000;5.954;2024-02-21T01:23:21;101694.09;;;8.52;100.00
67931;BME280;63902;52.000;5.954;2024-02-21T01:24:22;101688.03;;;8.47;100.00
67931;BME280;63902;52.000;5.954;2024-02-21T01:25:23;101687.16;;;8.47;100.00
67931;BME280;63902;52.000;5.954;2024-02-21T01:26:23;101680.88;;;8.52;100.00
67931;BME280;63902;52.000;5.954;2024-02-21T01:27:24;101689.72;;;8.51;100.00
67931;BME280;63902;52.000;5.954;2024-02-21T01:28:24;101646.84;;;8.33;100.00
67931;BME280;63902;52.000;5.954;2024-02-21T01:29:25;101676.47;;;8.53;100.00
67931;BME280;63902;52.000;5.954;2024-02-21T01:30:27;101687.91;;;8.54;100.00
67931;BME280;63902;52.000;5.954;2024-02-21T01:31:27;101679.22;;;8.47;100.00
67931;BME280;63902;52.000;5.954;2024-02-21T01:32:28;101688.00;;;8.49;100.00
67931;BME280;63902;52.000;5.954;2024-02-21T01:33:28;101693.22;;;8.52;100.00
67931;BME280;63902;52.000;5.954;2024-02-21T01:34:28;101700.31;;;8.51;100.00
67931;BME280;63902;52.000;5.954;2024-02-21T01:35:29;101703.81;;;8.50;100.00
67931;BME280;63902;52.000;5.954;2024-02-21T01:36:29;101702.97;;;8.50;100.00
67931;BME280;63902;52.000;5.954;2024-02-21T01:37:30;101697.66;;;8.50;100.00
67931;BME280;63902;52.000;5.954;2024-02-21T01:38:30;101681.09;;;8.37;100.00
67931;BME280;63902;52.000;5.954;2024-02-21T01:39:31;101700.31;;;8.50;100.00
67931;BME280;63902;52.000;5.954;2024-02-21T01:40:31;101698.59;;;8.49;100.00
67931;BME280;63902;52.000;5.954;2024-02-21T01:41:32;101704.75;;;8.48;100.00
67931;BME280;63902;52.000;5.954;2024-02-21T01:42:32;101689.88;;;8.42;100.00
67931;BME280;63902;52.000;5.954;2024-02-21T01:43:33;101674.94;;;8.40;100.00
67931;BME280;63902;52.000;5.954;2024-02-21T01:44:33;101703.88;;;8.49;100.00
67931;BME280;63902;52.000;5.954;2024-02-21T01:45:35;101701.22;;;8.49;100.00
67931;BME280;63902;52.000;5.954;2024-02-21T01:46:36;101696.03;;;8.43;100.00
67931;BME280;63902;52.000;5.954;2024-02-21T01:47:37;101694.16;;;8.48;100.00
67931;BME280;63902;52.000;5.954;2024-02-21T01:48:37;101689.75;;;8.48;100.00
67931;BME280;63902;52.000;5.954;2024-02-21T01:49:38;101691.53;;;8.48;100.00
67931;BME280;63902;52.000;5.954;2024-02-21T01:50:39;101684.53;;;8.45;100.00
67931;BME280;63902;52.000;5.954;2024-02-21T01:51:40;101692.44;;;8.47;100.00
67931;BME280;63902;52.000;5.954;2024-02-21T01:52:41;101686.28;;;8.46;100.00
67931;BME280;63902;52.000;5.954;2024-02-21T01:53:43;101680.13;;;8.46;100.00
67931;BME280;63902;52.000;5.954;2024-02-21T01:54:46;101651.34;;;8.26;100.00
67931;BME280;63902;52.000;5.954;2024-02-21T01:55:47;101675.72;;;8.45;100.00
67931;BME280;63902;52.000;5.954;2024-02-21T01:56:48;101671.34;;;8.44;100.00
67931;BME280;63902;52.000;5.954;2024-02-21T01:57:48;101677.50;;;8.44;100.00
67931;BME280;63902;52.000;5.954;2024-02-21T01:58:49;101666.06;;;8.44;100.00
67931;BME280;63902;52.000;5.954;2024-02-21T01:59:51;101673.13;;;8.43;100.00
67931;BME280;63902;52.000;5.954;2024-02-21T02:00:55;101662.56;;;8.42;100.00
67931;BME280;63902;52.000;5.954;2024-02-21T02:01:56;101664.28;;;8.43;100.00
67931;BME280;63902;52.000;5.954;2024-02-21T02:02:57;101662.56;;;8.42;100.00
67931;BME280;63902;52.000;5.954;2024-02-21T02:03:59;101644.22;;;8.33;100.00
67931;BME280;63902;52.000;5.954;2024-02-21T02:05:00;101655.56;;;8.41;100.00
67931;BME280;63902;52.000;5.954;2024-02-21T02:06:01;101661.63;;;8.44;100.00
67931;BME280;63902;52.000;5.954;2024-02-21T02:07:04;101651.13;;;8.41;100.00
67931;BME280;63902;52.000;5.954;2024-02-21T02:08:06;101652.00;;;8.42;100.00
67931;BME280;63902;52.000;5.954;2024-02-21T02:09:07;101639.69;;;8.39;100.00
67931;BME280;63902;52.000;5.954;2024-02-21T02:10:08;101653.72;;;8.43;100.00
67931;BME280;63902;52.000;5.954;2024-02-21T02:11:09;101622.34;;;8.24;100.00
67931;BME280;63902;52.000;5.954;2024-02-21T02:12:09;101645.84;;;8.40;100.00
67931;BME280;63902;52.000;5.954;2024-02-21T02:13:10;101629.22;;;8.32;100.00
67931;BME280;63902;52.000;5.954;2024-02-21T02:14:10;101621.41;;;8.27;100.00
67931;BME280;63902;52.000;5.954;2024-02-21T02:15:11;101636.19;;;8.40;100.00
67931;BME280;63902;52.000;5.954;2024-02-21T02:16:13;101639.69;;;8.41;100.00
67931;BME280;63902;52.000;5.954;2024-02-21T02:17:13;101637.94;;;8.37;100.00
67931;BME280;63902;52.000;5.954;2024-02-21T02:18:15;101640.56;;;8.41;100.00
67931;BME280;63902;52.000;5.954;2024-02-21T02:19:15;101637.03;;;8.41;100.00
67931;BME280;63902;52.000;5.954;2024-02-21T02:20:16;101590.00;;;8.10;100.00
67931;BME280;63902;52.000;5.954;2024-02-21T02:21:25;101629.13;;;8.41;100.00
67931;BME280;63902;52.000;5.954;2024-02-21T02:22:28;101635.25;;;8.41;100.00
67931;BME280;63902;52.000;5.954;2024-02-21T02:23:31;101630.84;;;8.42;100.00
67931;BME280;63902;52.000;5.954;2024-02-21T02:24:32;101616.88;;;8.34;100.00
67931;BME280;63902;52.000;5.954;2024-02-21T02:25:32;101623.78;;;8.42;100.00
67931;BME280;63902;52.000;5.954;2024-02-21T02:26:33;101608.06;;;8.35;100.00
67931;BME280;63902;52.000;5.954;2024-02-21T02:27:41;101617.69;;;8.39;100.00
67931;BME280;63902;52.000;5.954;2024-02-21T02:28:42;101620.31;;;8.40;100.00
67931;BME280;63902;52.000;5.954;2024-02-21T02:29:42;101618.56;;;8.38;100.00
67931;BME280;63902;52.000;5.954;2024-02-21T02:30:43;101615.91;;;8.39;100.00
67931;BME280;63902;52.000;5.954;2024-02-21T02:31:43;101619.41;;;8.40;100.00
67931;BME280;63902;52.000;5.954;2024-02-21T02:32:44;101614.16;;;8.37;100.00
67931;BME280;63902;52.000;5.954;2024-02-21T02:33:45;101615.94;;;8.36;100.00
67931;BME280;63902;52.000;5.954;2024-02-21T02:34:45;101617.66;;;8.37;100.00
67931;BME280;63902;52.000;5.954;2024-02-21T02:35:46;101615.91;;;8.39;100.00
67931;BME280;63902;52.000;5.954;2024-02-21T02:36:46;101589.75;;;8.24;100.00
67931;BME280;63902;52.000;5.954;2024-02-21T02:37:50;101604.50;;;8.36;100.00
67931;BME280;63902;52.000;5.954;2024-02-21T02:38:52;101597.56;;;8.30;100.00
67931;BME280;63902;52.000;5.954;2024-02-21T02:39:52;101607.16;;;8.36;100.00
67931;BME280;63902;52.000;5.954;2024-02-21T02:40:53;101591.47;;;8.26;100.00
67931;BME280;63902;52.000;5.954;2024-02-21T02:41:53;101603.59;;;8.37;100.00
67931;BME280;63902;52.000;5.954;2024-02-21T02:42:54;101603.63;;;8.35;100.00
67931;BME280;63902;52.000;5.954;2024-02-21T02:43:54;101599.22;;;8.36;100.00
67931;BME280;63902;52.000;5.954;2024-02-21T02:44:54;101580.91;;;8.25;100.00
67931;BME280;63902;52.000;5.954;2024-02-21T02:45:55;101600.94;;;8.37;100.00
67931;BME280;63902;52.000;5.954;2024-02-21T02:46:55;101607.09;;;8.37;100.00
67931;BME280;63902;52.000;5.954;2024-02-21T02:47:56;101591.28;;;8.34;100.00
67931;BME280;63902;52.000;5.954;2024-02-21T02:48:57;101603.63;;;8.35;100.00
67931;BME280;63902;52.000;5.954;2024-02-21T02:49:57;101566.03;;;8.19;100.00
67931;BME280;63902;52.000;5.954;2024-02-21T02:50:58;101582.66;;;8.26;100.00
67931;BME280;63902;52.000;5.954;2024-02-21T02:51:58;101593.94;;;8.36;100.00
67931;BME280;63902;52.000;5.954;2024-02-21T02:52:59;101593.94;;;8.36;100.00
67931;BME280;63902;52.000;5.954;2024-02-21T02:54:01;101600.94;;;8.37;100.00
67931;BME280;63902;52.000;5.954;2024-02-21T02:55:02;101600.94;;;8.37;100.00
67931;BME280;63902;52.000;5.954;2024-02-21T02:56:03;101574.84;;;8.20;100.00
67931;BME280;63902;52.000;5.954;2024-02-21T02:57:04;101602.78;;;8.35;100.00
67931;BME280;63902;52.000;5.954;2024-02-21T02:58:04;101605.41;;;8.35;100.00
67931;BME280;63902;52.000;5.954;2024-02-21T02:59:05;101598.34;;;8.35;100.00
67931;BME280;63902;52.000;5.954;2024-02-21T03:00:06;101603.59;;;8.37;100.00
67931;BME280;63902;52.000;5.954;2024-02-21T03:01:07;101599.22;;;8.36;100.00
67931;BME280;63902;52.000;5.954;2024-02-21T03:02:07;101600.94;;;8.37;100.00
67931;BME280;63902;52.000;5.954;2024-02-21T03:03:08;101601.84;;;8.36;100.00
67931;BME280;63902;52.000;5.954;2024-02-21T03:04:08;101592.28;;;8.28;100.00
67931;BME280;63902;52.000;5.954;2024-02-21T03:05:13;101601.84;;;8.36;100.00
67931;BME280;63902;52.000;5.954;2024-02-21T03:06:14;101586.94;;;8.33;100.00
67931;BME280;63902;52.000;5.954;2024-02-21T03:07:14;101602.72;;;8.36;100.00
67931;BME280;63902;52.000;5.954;2024-02-21T03:08:15;101597.44;;;8.36;100.00
67931;BME280;63902;52.000;5.954;2024-02-21T03:09:17;101590.44;;;8.34;100.00
67931;BME280;63902;52.000;5.954;2024-02-21T03:10:17;101586.06;;;8.33;100.00
67931;BME280;63902;52.000;5.954;2024-02-21T03:11:18;101590.44;;;8.34;100.00
67931;BME280;63902;52.000;5.954;2024-02-21T03:12:18;101579.13;;;8.27;100.00
67931;BME280;63902;52.000;5.954;2024-02-21T03:13:19;101593.06;;;8.35;100.00
67931;BME280;63902;52.000;5.954;2024-02-21T03:14:19;101593.06;;;8.35;100.00
67931;BME280;63902;52.000;5.954;2024-02-21T03:15:20;101582.56;;;8.30;100.00
67931;BME280;63902;52.000;5.954;2024-02-21T03:16:20;101567.78;;;8.20;100.00
67931;BME280;63902;52.000;5.954;2024-02-21T03:17:21;101586.13;;;8.29;100.00
67931;BME280;63902;52.000;5.954;2024-02-21T03:18:21;101589.56;;;8.33;100.00
67931;BME280;63902;52.000;5.954;2024-02-21T03:19:22;101593.94;;;8.34;100.00
67931;BME280;63902;52.000;5.954;2024-02-21T03:20:22;101582.50;;;8.35;100.00
67931;BME280;63902;52.000;5.954;2024-02-21T03:21:23;101585.13;;;8.35;100.00
67931;BME280;63902;52.000;5.954;2024-02-21T03:22:23;101585.16;;;8.34;100.00
67931;BME280;63902;52.000;5.954;2024-02-21T03:23:24;101578.19;;;8.29;100.00
67931;BME280;63902;52.000;5.954;2024-02-21T03:24:25;101586.00;;;8.34;100.00
67931;BME280;63902;52.000;5.954;2024-02-21T03:25:26;101583.38;;;8.34;100.00
67931;BME280;63902;52.000;5.954;2024-02-21T03:26:26;101579.91;;;8.32;100.00
67931;BME280;63902;52.000;5.954;2024-02-21T03:27:27;101578.13;;;8.33;100.00
67931;BME280;63902;52.000;5.954;2024-02-21T03:28:27;101578.13;;;8.33;100.00
67931;BME280;63902;52.000;5.954;2024-02-21T03:29:28;101583.41;;;8.33;100.00
67931;BME280;63902;52.000;5.954;2024-02-21T03:30:28;101581.69;;;8.30;100.00
67931;BME280;63902;52.000;5.954;2024-02-21T03:31:29;101572.97;;;8.26;100.00
67931;BME280;63902;52.000;5.954;2024-02-21T03:32:29;101586.06;;;8.33;100.00
67931;BME280;63902;52.000;5.954;2024-02-21T03:33:30;101586.94;;;8.32;100.00
67931;BME280;63902;52.000;5.954;2024-02-21T03:34:30;101575.56;;;8.28;100.00
67931;BME280;63902;52.000;5.954;2024-02-21T03:35:31;101573.84;;;8.25;100.00
67931;BME280;63902;52.000;5.954;2024-02-21T03:36:31;101566.09;;;8.16;100.00
67931;BME280;63902;52.000;5.954;2024-02-21T03:37:32;101588.69;;;8.33;100.00
67931;BME280;63902;52.000;5.954;2024-02-21T03:38:32;101584.28;;;8.32;100.00
67931;BME280;63902;52.000;5.954;2024-02-21T03:39:34;101583.41;;;8.33;100.00
67931;BME280;63902;52.000;5.954;2024-02-21T03:40:34;101584.28;;;8.32;100.00
67931;BME280;63902;52.000;5.954;2024-02-21T03:41:35;101586.06;;;8.31;100.00
67931;BME280;63902;52.000;5.954;2024-02-21T03:42:35;101579.00;;;8.32;100.00
67931;BME280;63902;52.000;5.954;2024-02-21T03:43:37;101581.66;;;8.32;100.00
67931;BME280;63902;52.000;5.954;2024-02-21T03:44:37;101571.97;;;8.32;100.00
67931;BME280;63902;52.000;5.954;2024-02-21T03:45:38;101563.22;;;8.28;100.00
67931;BME280;63902;52.000;5.954;2024-02-21T03:46:38;101557.19;;;8.23;100.00
67931;BME280;63902;52.000;5.954;2024-02-21T03:47:39;101552.72;;;8.25;100.00
67931;BME280;63902;52.000;5.954;2024-02-21T03:48:39;101550.94;;;8.26;100.00
67931;BME280;63902;52.000;5.954;2024-02-21T03:49:40;101530.81;;;8.19;100.00
67931;BME280;63902;52.000;5.954;2024-02-21T03:50:40;101560.56;;;8.30;100.00
67931;BME280;63902;52.000;5.954;2024-02-21T03:51:41;101559.66;;;8.31;100.00
67931;BME280;63902;52.000;5.954;2024-02-21T03:52:41;101554.41;;;8.29;100.00
67931;BME280;63902;52.000;5.954;2024-02-21T03:53:42;101556.13;;;8.30;100.00
67931;BME280;63902;52.000;5.954;2024-02-21T03:54:44;101554.34;;;8.31;100.00
67931;BME280;63902;52.000;5.954;2024-02-21T03:55:44;101540.41;;;8.24;100.00
67931;BME280;63902;52.000;5.954;2024-02-21T03:56:44;101551.72;;;8.31;100.00
67931;BME280;63902;52.000;5.954;2024-02-21T03:57:45;101547.34;;;8.30;100.00
67931;BME280;63902;52.000;5.954;2024-02-21T03:58:45;101551.75;;;8.29;100.00
67931;BME280;63902;52.000;5.954;2024-02-21T03:59:46;101555.28;;;8.30;100.00
67931;BME280;63902;52.000;5.954;2024-02-21T04:00:47;101551.75;;;8.29;100.00
67931;BME280;63902;52.000;5.954;2024-02-21T04:01:51;101549.13;;;8.29;100.00
67931;BME280;63902;52.000;5.954;2024-02-21T04:02:51;101543.84;;;8.29;100.00
67931;BME280;63902;52.000;5.954;2024-02-21T04:03:52;101547.41;;;8.25;100.00
67931;BME280;63902;52.000;5.954;2024-02-21T04:04:52;101550.00;;;8.28;100.00
67931;BME280;63902;52.000;5.954;2024-02-21T04:05:53;101549.13;;;8.29;100.00
67931;BME280;63902;52.000;5.954;2024-02-21T04:06:53;101555.22;;;8.32;100.00
67931;BME280;63902;52.000;5.954;2024-02-21T04:07:54;101542.13;;;8.27;100.00
67931;BME280;63902;52.000;5.954;2024-02-21T04:08:54;101559.66;;;8.31;100.00
67931;BME280;63902;52.000;5.954;2024-02-21T04:09:56;101552.63;;;8.30;100.00
67931;BME280;63902;52.000;5.954;2024-02-21T04:10:57;101546.44;;;8.31;100.00
67931;BME280;63902;52.000;5.954;2024-02-21T04:11:57;101541.19;;;8.28;100.00
67931;BME280;63902;52.000;5.954;2024-02-21T04:12:57;101541.19;;;8.29;100.00
67931;BME280;63902;52.000;5.954;2024-02-21T04:13:58;101544.72;;;8.28;100.00
67931;BME280;63902;52.000;5.954;2024-02-21T04:14:58;101543.84;;;8.29;100.00
67931;BME280;63902;52.000;5.954;2024-02-21T04:15:59;101541.19;;;8.28;100.00
67931;BME280;63902;52.000;5.954;2024-02-21T04:16:59;101548.28;;;8.27;100.00
67931;BME280;63902;52.000;5.954;2024-02-21T04:18:00;101551.78;;;8.28;100.00
67931;BME280;63902;52.000;5.954;2024-02-21T04:19:00;101551.75;;;8.29;100.00
67931;BME280;63902;52.000;5.954;2024-02-21T04:20:02;101551.75;;;8.29;100.00
67931;BME280;63902;52.000;5.954;2024-02-21T04:21:04;101542.13;;;8.25;100.00
67931;BME280;63902;52.000;5.954;2024-02-21T04:22:04;101530.75;;;8.22;100.00
67931;BME280;63902;52.000;5.954;2024-02-21T04:23:04;101542.06;;;8.28;100.00
67931;BME280;63902;52.000;5.954;2024-02-21T04:24:05;101556.19;;;8.27;100.00
67931;BME280;63902;52.000;5.954;2024-02-21T04:25:08;101544.78;;;8.25;100.00
67931;BME280;63902;52.000;5.954;2024-02-21T04:26:09;101548.28;;;8.27;100.00
67931;BME280;63902;52.000;5.954;2024-02-21T04:27:09;101545.63;;;8.27;100.00
67931;BME280;63902;52.000;5.954;2024-02-21T04:28:09;101544.69;;;8.30;100.00
67931;BME280;63902;52.000;5.954;2024-02-21T04:29:11;101524.63;;;8.20;100.00
67931;BME280;63902;52.000;5.954;2024-02-21T04:30:12;101528.91;;;8.25;100.00
67931;BME280;63902;52.000;5.954;2024-02-21T04:31:12;101521.84;;;8.27;100.00
67931;BME280;63902;52.000;5.954;2024-02-21T04:32:13;101527.03;;;8.32;100.00
67931;BME280;63902;52.000;5.954;2024-02-21T04:33:13;101527.94;;;8.31;100.00
67931;BME280;63902;52.000;5.954;2024-02-21T04:34:13;101516.56;;;8.27;100.00
67931;BME280;63902;52.000;5.954;2024-02-21T04:35:14;101529.69;;;8.32;100.00
67931;BME280;63902;52.000;5.954;2024-02-21T04:36:14;101528.78;;;8.32;100.00
67931;BME280;63902;52.000;5.954;2024-02-21T04:37:15;101533.25;;;8.29;100.00
67931;BME280;63902;52.000;5.954;2024-02-21T04:38:15;101529.78;;;8.27;100.00
67931;BME280;63902;52.000;5.954;2024-02-21T04:39:16;101538.50;;;8.31;100.00
67931;BME280;63902;52.000;5.954;2024-02-21T04:40:18;101498.47;;;8.07;100.00
67931;BME280;63902;52.000;5.954;2024-02-21T04:41:18;101537.63;;;8.30;100.00
67931;BME280;63902;52.000;5.954;2024-02-21T04:42:19;101530.63;;;8.29;100.00
67931;BME280;63902;52.000;5.954;2024-02-21T04:43:19;101531.44;;;8.32;100.00
67931;BME280;63902;52.000;5.954;2024-02-21T04:44:19;101533.22;;;8.31;100.00
67931;BME280;63902;52.000;5.954;2024-02-21T04:45:20;101535.91;;;8.29;100.00
67931;BME280;63902;52.000;5.954;2024-02-21T04:46:20;101527.97;;;8.29;100.00
67931;BME280;63902;52.000;5.954;2024-02-21T04:47:21;101522.63;;;8.31;100.00
67931;BME280;63902;52.000;5.954;2024-02-21T04:48:21;101529.75;;;8.29;100.00
67931;BME280;63902;52.000;5.954;2024-02-21T04:49:22;101534.06;;;8.32;100.00
67931;BME280;63902;52.000;5.954;2024-02-21T04:50:22;101532.34;;;8.30;100.00
67931;BME280;63902;52.000;5.954;2024-02-21T04:51:23;101531.47;;;8.30;100.00
67931;BME280;63902;52.000;5.954;2024-02-21T04:52:23;101527.97;;;8.29;100.00
67931;BME280;63902;52.000;5.954;2024-02-21T04:53:24;101518.34;;;8.27;100.00
67931;BME280;63902;52.000;5.954;2024-02-21T04:54:24;101508.75;;;8.21;100.00
67931;BME280;63902;52.000;5.954;2024-02-21T04:55:26;101527.97;;;8.29;100.00
67931;BME280;63902;52.000;5.954;2024-02-21T04:56:27;101510.47;;;8.24;100.00
67931;BME280;63902;52.000;5.954;2024-02-21T04:57:27;101521.78;;;8.30;100.00
67931;BME280;63902;52.000;5.954;2024-02-21T04:58:28;101519.19;;;8.29;100.00
67931;BME280;63902;52.000;5.954;2024-02-21T04:59:28;101509.47;;;8.29;100.00
67931;BME280;63902;52.000;5.954;2024-02-21T05:00:29;101507.72;;;8.28;100.00
67931;BME280;63902;52.000;5.954;2024-02-21T05:01:29;101498.91;;;8.29;100.00
67931;BME280;63902;52.000;5.954;2024-02-21T05:02:30;101504.19;;;8.29;100.00
67931;BME280;63902;52.000;5.954;2024-02-21T05:03:30;101503.31;;;8.29;100.00
67931;BME280;63902;52.000;5.954;2024-02-21T05:04:30;101494.53;;;8.27;100.00
67931;BME280;63902;52.000;5.954;2024-02-21T05:05:31;101491.03;;;8.26;100.00
67931;BME280;63902;52.000;5.954;2024-02-21T05:06:31;101490.22;;;8.23;100.00
67931;BME280;63902;52.000;5.954;2024-02-21T05:07:32;101495.41;;;8.27;100.00
67931;BME280;63902;52.000;5.954;2024-02-21T05:08:32;101489.28;;;8.25;100.00
67931;BME280;63902;52.000;5.954;2024-02-21T05:09:33;101496.31;;;8.26;100.00
67931;BME280;63902;52.000;5.954;2024-02-21T05:10:35;101492.78;;;8.26;100.00
67931;BME280;63902;52.000;5.954;2024-02-21T05:11:36;101500.69;;;8.27;100.00
67931;BME280;63902;52.000;5.954;2024-02-21T05:12:36;101494.53;;;8.27;100.00
67931;BME280;63902;52.000;5.954;2024-02-21T05:13:37;101498.06;;;8.27;100.00
67931;BME280;63902;52.000;5.954;2024-02-21T05:14:37;101488.41;;;8.26;100.00
67931;BME280;63902;52.000;5.954;2024-02-21T05:15:38;101458.72;;;8.12;100.00
67931;BME280;63902;52.000;5.954;2024-02-21T05:16:38;101473.50;;;8.22;100.00
67931;BME280;63902;52.000;5.954;2024-02-21T05:17:39;101485.69;;;8.28;100.00